Terminal Aerodrome Forecast
Issued by NWS

Home | Current Version | Previous Version | Text Only | Print | Product List | Glossary Off
Versions: 1 2 3 4 5 6 7 8 9 10 11 12 13 14 15 16 17 18 19 20 21 22

000
FTUS42 KMHX 301140
TAFISO
TAF
KISO 301140Z 3012/3112 VRB03KT P6SM VCSH SCT025 OVC035
     FM301800 11005KT 5SM SHRA OVC025
     FM302200 00000KT P6SM VCSH OVC040
     FM310900 00000KT 5SM BR SCT008 OVC020
      AMD LTD TO CLD VIS AND WIND=

USA.gov is the U.S. government's official web portal to all federal, state and local government web resources and services.